Líbí se Vám tento web? Budeme velmi rádi, pokud přidáte hodnocení +1

Seznam meteostanic a jejich METAR

Vyhledat místa podle abecedy:
A B C D E F G H I J K L M N O P Q R S T U V W X Y Z

Filtrovat:

ID stanice:
a/nebo
Název místa (fulltext):
 
Místo (ID)Naposledy načteno 
Aalborg (EKYT) 17.01.2018 18:50 UTC Zobrazit METAR
EKYT 171850Z 24006KT 9999 FEW018 BKN024 01/01 Q0991 R26L/590348
Aarhus (EKAH) 09.01.2018 18:50 UTC Zobrazit METAR
EKAH 091850Z 11013KT CAVOK 04/00 Q1017
Abu Dhabi (OMAA) 17.01.2018 21:00 UTC Zobrazit METAR
OMAA 172100Z 19005KT 9999 BKN040 18/12 Q1015 NOSIG
Abuja (DNAA) 24.12.2017 10:00 UTC Zobrazit METAR
DNAA 241000Z 12004KT 030V190 4000 HZ NSC 29/06 Q1014 TEMPO 3000 HZ
Accra (DGAA) 17.01.2018 21:00 UTC Zobrazit METAR
DGAA 172100Z 22010KT 7000 FEW011 27/25 Q1012 NOSIG
Addis Abeba (HAAB) 17.01.2018 04:00 UTC Zobrazit METAR
HAAB 170400Z 35002KT 9999 FEW025 07/M01 Q1026
Agana (PGUM) 17.01.2018 20:54 UTC Zobrazit METAR
PGUM 172054Z 07009KT 10SM CLR 27/23 A2989 RMK AO2 RAB19E32 SLP112 P0000 60000 T02670233 53010
Ahe Island (NTHE) Zatím nenačteno  
Akureyri (BIAR) 17.01.2018 21:00 UTC Zobrazit METAR
BIAR 172100Z 19004KT 9999 FEW049 M06/M09 Q0982 R01/090078
Almaty (UAAA) Zatím nenačteno  
Amman (OJAM) 17.01.2018 21:00 UTC Zobrazit METAR
OJAM 172100Z 24009KT 6000 SCT025 SCT030 09/07 Q1016 NOSIG
Amsterdam (EHAM) 17.01.2018 20:55 UTC Zobrazit METAR
EHAM 172055Z 25017KT 220V280 9999 SCT030 06/01 Q1004 NOSIG
Antananarivo (FMMI) 17.01.2018 21:00 UTC Zobrazit METAR
FMMI 172100Z 14005KT 120V180 9999 SCT017 17/15 Q1018 NOSIG
Antwerp (EBAW) 17.01.2018 20:50 UTC Zobrazit METAR
EBAW 172050Z 24011KT 9999 FEW038 06/M00 Q1008 NOSIG
Apia (NSFA) 17.01.2018 20:00 UTC Zobrazit METAR
NSFA 172000Z 09003KT 9999 FEW020 SCT040 BKN140 31/24 Q1012
Aruba I (TNCA) 17.01.2018 20:00 UTC Zobrazit METAR
TNCA 172000Z 08016KT 9999 SCT022 30/24 Q1011 NOSIG
Ascension I. (FHAW) 17.01.2018 20:50 UTC Zobrazit METAR
FHAW 172050Z 12014KT 9999 FEW007 SCT010 BKN020 24/23 Q1013 GRN
Ashgabat (UTAA) 17.01.2018 21:00 UTC Zobrazit METAR
UTAA 172100Z 24005KT 5000 BR NSC M01/M02 Q1019 R88/CLRD70 NOSIG
Asmara (HHAS) 03.02.2015 17:00 UTC Zobrazit METAR
HHAS 031700Z 27004KT CAVOK 15/06 Q1028 NOSIG
Astana (UACC) Zatím nenačteno  
Astrakhan (URWA) Zatím nenačteno  
Asuncion (SGAS) 17.01.2018 21:00 UTC Zobrazit METAR
SGAS 172100Z VRB04KT 9999 SCT030 34/24 Q1007
Athens (LGAV) 17.01.2018 20:50 UTC Zobrazit METAR
LGAV 172050Z 23014KT 9999 FEW040 15/07 Q0998 NOSIG
Reklama

Počasí na Váš email

Emaily jsou bez reklamy a bez spamu



Odhlásit newsletter

Reklama


Lunární kalendář

  • 24.01.
  • 31.01.
  • 07.02.
  • 15.02.



Jsme na Google Plus

Reklama
Povinné ručení



Může Vás také zajímat:


Reklama